createdAt,value
2022-09-17T00:01:31.575Z,5.78
2022-09-17T00:06:39.036Z,1.98
2022-09-17T00:11:45.978Z,4.55
2022-09-17T00:16:52.005Z,3.78
2022-09-17T00:21:59.497Z,3.20
2022-09-17T00:27:06.297Z,4.50
2022-09-17T00:32:12.233Z,2.28
2022-09-17T00:37:19.640Z,3.25
2022-09-17T00:42:26.778Z,4.15
2022-09-17T00:47:36.269Z,3.00
2022-09-17T00:52:48.392Z,7.05
2022-09-17T00:57:59.037Z,3.15
2022-09-17T01:03:05.379Z,2.30
2022-09-17T01:08:22.843Z,3.40
2022-09-17T01:13:44.176Z,3.80
2022-09-17T01:19:05.830Z,6.30
2022-09-17T01:25:02.012Z,3.17
2022-09-17T01:30:29.448Z,2.97
2022-09-17T01:35:46.375Z,2.00
2022-09-17T01:40:58.704Z,2.13
2022-09-17T01:46:15.893Z,2.10
2022-09-17T01:51:26.292Z,4.60
2022-09-17T01:56:38.797Z,5.32
2022-09-17T02:01:49.577Z,1.63
2022-09-17T02:07:01.075Z,5.72
2022-09-17T02:12:13.384Z,2.17
2022-09-17T02:17:27.321Z,3.45
2022-09-17T02:22:40.667Z,2.60
2022-09-17T02:27:57.740Z,2.60
2022-09-17T02:33:09.341Z,1.98
2022-09-17T02:38:15.413Z,1.95
2022-09-17T02:43:32.141Z,1.85
2022-09-17T02:49:21.190Z,1.30
2022-09-17T02:54:34.286Z,3.20
2022-09-17T02:59:52.203Z,2.47
2022-09-17T03:05:01.474Z,1.92
2022-09-17T03:10:09.398Z,1.42
2022-09-17T03:15:17.333Z,2.45
2022-09-17T03:20:24.987Z,1.27
2022-09-17T03:25:30.855Z,1.75
2022-09-17T03:30:37.409Z,4.15
2022-09-17T03:35:46.905Z,3.65
2022-09-17T03:41:04.389Z,2.50
2022-09-17T03:46:10.469Z,4.45
2022-09-17T03:51:17.915Z,2.08
2022-09-17T03:56:23.891Z,2.45
2022-09-17T04:01:31.065Z,3.70
2022-09-17T04:06:38.739Z,2.13
2022-09-17T04:11:44.919Z,3.72
2022-09-17T04:16:51.407Z,1.48
2022-09-17T04:21:58.769Z,3.67
2022-09-17T04:27:05.098Z,1.02
2022-09-17T04:32:11.193Z,2.63
2022-09-17T04:37:20.112Z,4.32
2022-09-17T04:42:26.634Z,2.40
2022-09-17T04:47:32.790Z,4.80
2022-09-17T04:52:44.759Z,1.73
2022-09-17T04:57:52.124Z,1.40
2022-09-17T05:02:58.370Z,1.63
2022-09-17T05:08:06.198Z,1.35
2022-09-17T05:13:12.193Z,3.72
2022-09-17T05:18:18.382Z,1.92
2022-09-17T05:23:26.239Z,1.20
2022-09-17T05:28:32.622Z,2.25
2022-09-17T05:33:38.709Z,3.72
2022-09-17T05:38:46.268Z,3.78
2022-09-17T05:43:52.699Z,3.65
2022-09-17T05:48:59.029Z,3.28
2022-09-17T05:54:06.971Z,2.53
2022-09-17T05:59:13.106Z,2.13
2022-09-17T06:04:19.427Z,2.88
2022-09-17T06:09:27.259Z,2.35
2022-09-17T06:14:33.496Z,3.55
2022-09-17T06:19:39.637Z,2.28
2022-09-17T06:24:47.174Z,4.93
2022-09-17T06:29:53.357Z,2.80
2022-09-17T06:34:59.451Z,2.65
2022-09-17T06:40:09.296Z,3.55
2022-09-17T06:45:17.202Z,2.20
2022-09-17T06:50:24.147Z,4.72
2022-09-17T06:55:32.231Z,5.13
2022-09-17T07:00:38.265Z,4.85
2022-09-17T07:05:47.028Z,2.72
2022-09-17T07:10:58.089Z,2.38
2022-09-17T07:16:07.083Z,5.35
2022-09-17T07:21:13.409Z,4.03
2022-09-17T07:26:22.171Z,3.47
2022-09-17T07:31:28.324Z,4.25
2022-09-17T07:36:34.437Z,4.22
2022-09-17T07:41:42.308Z,2.42
2022-09-17T07:46:48.614Z,4.82
2022-09-17T07:51:55.269Z,6.70
2022-09-17T07:57:04.458Z,3.50
2022-09-17T08:02:14.874Z,2.88
2022-09-17T08:07:21.616Z,3.70
2022-09-17T08:12:29.525Z,4.55
2022-09-17T08:17:38.303Z,2.08
2022-09-17T08:22:49.872Z,2.95
2022-09-17T08:27:58.292Z,2.83
2022-09-17T08:33:04.481Z,2.25
2022-09-17T08:38:10.444Z,2.33
2022-09-17T08:43:21.502Z,3.22
2022-09-17T08:48:36.807Z,1.42
2022-09-17T08:53:59.161Z,4.03
2022-09-17T08:59:21.782Z,4.00
2022-09-17T09:05:00.858Z,1.25
2022-09-17T09:15:38.942Z,2.40
2022-09-17T09:20:53.890Z,4.30
2022-09-17T09:26:14.071Z,2.50
2022-09-17T09:31:49.172Z,2.22
2022-09-17T09:36:59.645Z,1.15
2022-09-17T09:42:12.875Z,2.25
2022-09-17T09:47:44.404Z,1.63
2022-09-17T09:53:08.504Z,1.02
2022-09-17T09:58:29.109Z,1.63
2022-09-17T10:03:42.493Z,1.45
2022-09-17T10:09:14.172Z,1.42
2022-09-17T10:14:27.247Z,1.38
2022-09-17T10:19:35.435Z,2.60
2022-09-17T10:24:41.870Z,1.13
2022-09-17T10:35:29.088Z,0.90
2022-09-17T10:45:46.756Z,0.55
2022-09-17T10:50:55.700Z,0.43
2022-09-17T11:01:29.360Z,1.33
2022-09-17T11:07:25.248Z,1.70
2022-09-17T11:12:43.495Z,1.00
2022-09-17T11:18:06.409Z,0.60
2022-09-17T11:23:34.179Z,2.03
2022-09-17T11:28:55.009Z,1.48
2022-09-17T11:34:28.246Z,2.17
2022-09-17T11:39:43.224Z,3.47
2022-09-17T11:44:53.316Z,0.90
2022-09-17T11:50:05.402Z,0.82
2022-09-17T11:55:23.722Z,0.88
2022-09-17T12:00:31.833Z,1.35
2022-09-17T12:05:42.257Z,1.45
2022-09-17T12:10:55.100Z,1.48
2022-09-17T12:16:17.461Z,1.15
2022-09-17T12:21:31.335Z,0.88
2022-09-17T12:27:21.538Z,2.45
2022-09-17T12:32:58.993Z,2.28
2022-09-17T12:38:27.178Z,0.60
2022-09-17T12:44:04.476Z,0.90
2022-09-17T12:49:47.287Z,2.70
2022-09-17T12:55:25.259Z,0.93
2022-09-17T13:00:41.745Z,2.23
2022-09-17T13:06:28.386Z,1.30
2022-09-17T13:12:05.866Z,1.77
2022-09-17T13:17:25.196Z,1.52
2022-09-17T13:22:34.564Z,2.88
2022-09-17T13:27:42.126Z,1.63
2022-09-17T13:32:53.377Z,4.72
2022-09-17T13:38:02.432Z,1.23
2022-09-17T13:43:13.882Z,2.95
2022-09-17T13:48:26.548Z,1.52
2022-09-17T13:53:35.192Z,1.33
2022-09-17T13:58:43.623Z,1.33
2022-09-17T14:03:57.372Z,1.83
2022-09-17T14:09:38.513Z,2.47
2022-09-17T14:14:53.674Z,4.55
2022-09-17T14:20:02.417Z,2.40
2022-09-17T14:25:19.005Z,1.98
2022-09-17T14:30:27.911Z,3.75
2022-09-17T14:35:41.376Z,2.22
2022-09-17T14:40:49.721Z,2.83
2022-09-17T14:45:56.468Z,2.20
2022-09-17T14:51:29.391Z,7.80
2022-09-17T14:56:49.468Z,5.80
2022-09-17T15:01:56.253Z,4.13
2022-09-17T15:07:15.172Z,3.42
2022-09-17T15:12:23.639Z,2.53
2022-09-17T15:17:30.871Z,5.15
2022-09-17T15:22:42.687Z,5.20
2022-09-17T15:27:51.465Z,10.77
2022-09-17T15:33:00.349Z,11.70
2022-09-17T15:38:24.248Z,5.18
2022-09-17T15:43:33.371Z,4.55
2022-09-17T15:48:41.814Z,4.72
2022-09-17T15:53:57.298Z,3.15
2022-09-17T15:59:05.914Z,3.25
2022-09-17T16:04:31.367Z,2.92
2022-09-17T16:09:59.678Z,3.63
2022-09-17T16:15:08.217Z,10.93
2022-09-17T16:20:22.290Z,8.98
2022-09-17T16:25:31.006Z,13.88
2022-09-17T16:30:37.397Z,26.55
2022-09-17T16:35:45.347Z,15.52
2022-09-17T16:40:53.285Z,11.30
2022-09-17T16:46:03.179Z,7.18
2022-09-17T16:51:10.435Z,12.63
2022-09-17T16:56:18.686Z,9.98
2022-09-17T17:01:25.440Z,10.17
2022-09-17T17:06:32.666Z,5.30
2022-09-17T17:11:41.113Z,7.95
2022-09-17T17:16:47.775Z,8.63
2022-09-17T17:21:54.780Z,11.65
2022-09-17T17:27:04.053Z,8.20
2022-09-17T17:32:10.658Z,10.65
2022-09-17T17:37:18.860Z,13.77
2022-09-17T17:42:36.049Z,27.88
2022-09-17T17:47:44.607Z,39.80
2022-09-17T17:52:50.924Z,36.70
2022-09-17T17:58:01.675Z,53.15
2022-09-17T18:03:08.195Z,75.05
2022-09-17T18:08:17.897Z,54.33
2022-09-17T18:13:26.364Z,36.67
2022-09-17T18:18:43.610Z,40.47
2022-09-17T18:23:52.064Z,24.03
2022-09-17T18:29:03.237Z,20.88
2022-09-17T18:34:14.874Z,30.33
2022-09-17T18:44:51.039Z,29.83
2022-09-17T18:49:57.190Z,17.67
2022-09-17T18:55:04.042Z,18.95
2022-09-17T19:00:13.423Z,16.90
2022-09-17T19:05:20.420Z,12.95
2022-09-17T19:10:27.921Z,13.15
2022-09-17T19:15:36.267Z,13.50
2022-09-17T19:20:44.125Z,15.53
2022-09-17T19:25:51.151Z,11.52
2022-09-17T19:30:59.097Z,11.73
2022-09-17T19:36:07.642Z,11.95
2022-09-17T19:41:16.508Z,14.32
2022-09-17T19:46:28.271Z,11.93
2022-09-17T19:51:36.005Z,11.23
2022-09-17T19:56:45.022Z,11.63
2022-09-17T20:01:53.272Z,9.88
2022-09-17T20:07:02.094Z,9.55
2022-09-17T20:17:25.873Z,14.43
2022-09-17T20:22:32.506Z,10.75
2022-09-17T20:27:39.093Z,9.20
2022-09-17T20:32:46.616Z,5.35
2022-09-17T20:38:57.492Z,7.68
2022-09-17T20:43:20.779Z,6.80
2022-09-17T20:48:29.453Z,5.45
2022-09-17T20:53:39.034Z,5.63
2022-09-17T20:58:48.829Z,5.50
2022-09-17T21:03:56.532Z,6.60
2022-09-17T21:09:03.840Z,6.25
2022-09-17T21:14:10.943Z,5.15
2022-09-17T21:19:20.173Z,3.50
2022-09-17T21:24:26.597Z,3.25
2022-09-17T21:29:32.661Z,5.90
2022-09-17T21:34:41.226Z,5.32
2022-09-17T21:39:50.582Z,5.20
2022-09-17T21:44:59.199Z,4.82
2022-09-17T21:50:09.467Z,5.85
2022-09-17T21:55:19.280Z,7.18
2022-09-17T22:00:28.144Z,2.83
2022-09-17T22:05:36.605Z,2.58
2022-09-17T22:10:45.663Z,4.47
2022-09-17T22:15:58.940Z,3.65
2022-09-17T22:21:16.497Z,3.97
2022-09-17T22:26:25.512Z,5.57
2022-09-17T22:31:31.726Z,4.40
2022-09-17T22:36:42.433Z,4.50
2022-09-17T22:41:50.412Z,3.22
2022-09-17T22:46:57.126Z,4.53
2022-09-17T22:52:05.223Z,4.43
2022-09-17T22:57:11.608Z,3.95
2022-09-17T23:02:17.844Z,6.70
2022-09-17T23:07:25.362Z,5.45
2022-09-17T23:12:31.561Z,6.45
2022-09-17T23:17:37.629Z,5.78
2022-09-17T23:22:45.155Z,4.25
2022-09-17T23:27:51.227Z,4.00
2022-09-17T23:32:58.990Z,5.95
2022-09-17T23:38:06.826Z,4.40
2022-09-17T23:43:12.653Z,6.90
2022-09-17T23:48:18.558Z,4.85
2022-09-17T23:53:26.381Z,3.80
2022-09-17T23:58:33.234Z,5.97
